Time;durP1;ratioP1;P1;durP2;ratioP2;P2;SDS_P1;SDS_P2;PMS_P1;PMS_P2;Temp;Humidity;BMP_temperature;BMP_pressure;BME280_temperature;BME280_humidity;BME280_pressure;Samples;Min_cycle;Max_cycle;Signal;HPM_P1;HPM_P2
2022/06/23 00:00:17;;;;;;;4.70;3.00;;;18.10;99.90;;;;;;5033687;28;20207;-76
2022/06/23 00:02:46;;;;;;;4.55;3.33;;;18.10;99.90;;;;;;5026221;28;20750;-75
2022/06/23 00:05:17;;;;;;;4.35;3.85;;;18.00;99.90;;;;;;5018511;28;20590;-75
2022/06/23 00:07:47;;;;;;;6.05;3.78;;;18.00;99.90;;;;;;5022135;28;20222;-76
2022/06/23 00:10:19;;;;;;;6.07;3.37;;;18.00;99.90;;;;;;5019358;28;20591;-75
2022/06/23 00:12:46;;;;;;;4.65;3.15;;;18.00;99.90;;;;;;5018204;28;20686;-76
2022/06/23 00:15:38;;;;;;;4.15;3.25;;;17.90;99.90;;;;;;5036104;28;20218;-76
2022/06/23 00:18:16;;;;;;;3.78;3.10;;;17.90;99.90;;;;;;4979192;28;20207;-75
2022/06/23 00:20:48;;;;;;;7.07;3.30;;;17.90;99.90;;;;;;4984752;28;20200;-76
2022/06/23 00:23:19;;;;;;;8.25;4.07;;;17.90;99.90;;;;;;4982502;28;20706;-75
2022/06/23 00:25:52;;;;;;;4.88;3.00;;;17.90;99.90;;;;;;4978467;28;20212;-76
2022/06/23 00:28:22;;;;;;;5.18;3.10;;;17.80;99.90;;;;;;4977707;28;20220;-76
2022/06/23 00:30:53;;;;;;;4.80;3.10;;;17.80;99.90;;;;;;4979097;28;20732;-76
2022/06/23 00:33:25;;;;;;;5.37;3.20;;;17.80;99.90;;;;;;4978895;28;20726;-75
2022/06/23 00:35:53;;;;;;;4.82;2.97;;;17.80;99.90;;;;;;4980605;28;20201;-76
2022/06/23 00:38:24;;;;;;;4.40;3.20;;;17.80;99.90;;;;;;4984816;28;20211;-75
2022/06/23 00:40:52;;;;;;;4.38;3.10;;;17.80;99.90;;;;;;4981553;28;20223;-75
2022/06/23 00:43:21;;;;;;;5.23;3.93;;;17.70;99.90;;;;;;4978692;28;20693;-75
2022/06/23 00:45:54;;;;;;;7.00;4.90;;;17.70;99.90;;;;;;4989772;28;20682;-76
2022/06/23 00:48:29;;;;;;;6.00;4.00;;;17.70;99.90;;;;;;4978618;28;20212;-75
2022/06/23 00:51:03;;;;;;;8.02;4.10;;;17.70;99.90;;;;;;4978870;28;20216;-75
2022/06/23 00:53:34;;;;;;;6.77;3.93;;;17.70;99.90;;;;;;4985633;28;20251;-75
2022/06/23 00:56:09;;;;;;;4.77;3.33;;;17.70;99.90;;;;;;4982823;28;20216;-75
2022/06/23 00:58:43;;;;;;;6.33;3.10;;;17.70;99.90;;;;;;4980871;28;20642;-75
2022/06/23 01:01:16;;;;;;;7.72;5.10;;;17.70;99.90;;;;;;4978902;28;20216;-75
2022/06/23 01:03:52;;;;;;;7.90;4.47;;;17.60;99.90;;;;;;4983445;28;20232;-75
2022/06/23 01:06:26;;;;;;;4.35;3.35;;;17.60;99.90;;;;;;4986918;28;20219;-74
2022/06/23 01:08:57;;;;;;;7.63;5.23;;;17.60;99.90;;;;;;4990845;28;20745;-75
2022/06/23 01:11:30;;;;;;;5.45;4.15;;;17.60;99.90;;;;;;4978849;28;20581;-75
2022/06/23 01:14:06;;;;;;;7.93;3.77;;;17.60;99.90;;;;;;4980496;28;20201;-75
2022/06/23 01:16:43;;;;;;;7.57;5.00;;;17.60;99.90;;;;;;5004070;28;20239;-75
2022/06/23 01:19:37;;;;;;;6.78;3.33;;;17.60;99.90;;;;;;5021092;28;20209;-74
2022/06/23 01:22:15;;;;;;;4.53;3.37;;;17.60;99.90;;;;;;5022618;28;20237;-75
2022/06/23 01:24:49;;;;;;;5.90;3.87;;;17.70;99.90;;;;;;5026016;28;20272;-74
2022/06/23 01:27:26;;;;;;;8.13;5.00;;;17.60;99.90;;;;;;5023606;28;20206;-75
2022/06/23 01:30:00;;;;;;;6.22;4.35;;;17.60;99.90;;;;;;5018097;28;20231;-76
2022/06/23 01:32:32;;;;;;;5.67;3.90;;;17.50;99.90;;;;;;5018676;28;20210;-75
2022/06/23 01:35:06;;;;;;;4.97;3.13;;;17.50;99.90;;;;;;5031201;28;20208;-74
2022/06/23 01:37:39;;;;;;;6.00;3.20;;;17.50;99.90;;;;;;5018864;28;20194;-74
2022/06/23 01:40:13;;;;;;;5.90;2.93;;;17.50;99.90;;;;;;5021153;28;20214;-75
2022/06/23 01:42:46;;;;;;;5.17;3.50;;;17.50;99.90;;;;;;5024046;28;20210;-75
2022/06/23 01:45:22;;;;;;;5.43;3.40;;;17.50;99.90;;;;;;5020414;28;20294;-75
2022/06/23 01:47:54;;;;;;;4.33;3.23;;;17.50;99.90;;;;;;5025920;28;20562;-76
2022/06/23 01:50:37;;;;;;;5.60;3.43;;;17.50;99.90;;;;;;5016190;28;20211;-75
2022/06/23 01:53:29;;;;;;;9.37;5.93;;;17.50;99.90;;;;;;5025055;28;20211;-75
2022/06/23 01:56:20;;;;;;;5.37;4.50;;;17.50;99.90;;;;;;5025820;28;20211;-75
2022/06/23 01:58:54;;;;;;;5.88;4.85;;;17.50;99.90;;;;;;5019297;28;20203;-75
2022/06/23 02:01:30;;;;;;;7.67;4.43;;;17.50;99.90;;;;;;5024223;28;20209;-74
2022/06/23 02:04:02;;;;;;;4.75;3.63;;;17.50;99.90;;;;;;5022130;28;20219;-75
2022/06/23 02:06:38;;;;;;;4.20;3.17;;;17.50;99.90;;;;;;5024331;28;20210;-76
2022/06/23 02:09:11;;;;;;;4.07;3.50;;;17.40;99.90;;;;;;5020519;28;20260;-75
2022/06/23 02:11:45;;;;;;;4.87;3.27;;;17.40;99.90;;;;;;5024923;28;20209;-75
2022/06/23 02:14:33;;;;;;;5.33;3.27;;;17.40;99.90;;;;;;5026579;28;20632;-74
2022/06/23 02:17:10;;;;;;;7.97;3.90;;;17.50;99.90;;;;;;5018394;28;20230;-75
2022/06/23 02:19:44;;;;;;;5.93;3.60;;;17.50;99.90;;;;;;5020609;28;20680;-75
2022/06/23 02:22:14;;;;;;;5.10;3.30;;;17.50;99.90;;;;;;5018124;28;20644;-75
2022/06/23 02:24:47;;;;;;;3.58;3.05;;;17.50;99.90;;;;;;5027547;28;20230;-75
2022/06/23 02:27:23;;;;;;;4.43;3.50;;;17.60;99.90;;;;;;5025578;28;20199;-75
2022/06/23 02:29:56;;;;;;;4.10;3.10;;;17.50;99.90;;;;;;5018149;28;20596;-75
2022/06/23 02:32:36;;;;;;;4.27;3.20;;;17.50;99.90;;;;;;5022133;28;20208;-75
2022/06/23 02:35:14;;;;;;;5.72;3.25;;;17.60;99.90;;;;;;5018957;28;20207;-74
2022/06/23 02:37:56;;;;;;;3.55;3.25;;;17.50;99.90;;;;;;5021356;28;20221;-75
2022/06/23 02:40:30;;;;;;;5.15;3.38;;;17.50;99.90;;;;;;5026346;28;20211;-75
2022/06/23 02:43:03;;;;;;;4.63;3.83;;;17.60;99.90;;;;;;5018552;28;20214;-76
2022/06/23 02:46:01;;;;;;;5.83;3.63;;;17.60;99.90;;;;;;5019675;28;20221;-75
2022/06/23 02:48:47;;;;;;;5.05;3.42;;;17.60;99.90;;;;;;5028335;28;20218;-75
2022/06/23 02:51:27;;;;;;;6.50;3.50;;;17.60;99.90;;;;;;5021491;28;20215;-75
2022/06/23 02:54:18;;;;;;;8.23;4.07;;;17.60;99.90;;;;;;5022914;28;20214;-75
2022/06/23 02:57:20;;;;;;;5.45;3.63;;;17.60;99.90;;;;;;5017960;28;20589;-75
2022/06/23 02:59:52;;;;;;;7.73;3.70;;;17.60;99.90;;;;;;5008679;28;20275;-75
2022/06/23 03:02:26;;;;;;;7.57;3.42;;;17.60;99.90;;;;;;5022373;28;20211;-75
2022/06/23 03:04:58;;;;;;;10.37;4.20;;;17.60;99.90;;;;;;5022854;28;20207;-75
2022/06/23 03:07:31;;;;;;;7.47;3.67;;;17.60;99.90;;;;;;5028886;28;20283;-74
2022/06/23 03:10:04;;;;;;;5.07;3.40;;;17.60;99.90;;;;;;5029336;28;20595;-75
2022/06/23 03:12:39;;;;;;;6.03;3.97;;;17.70;99.90;;;;;;5023361;28;20724;-75
2022/06/23 03:15:13;;;;;;;5.38;3.90;;;17.80;99.90;;;;;;5033793;28;20293;-75
2022/06/23 03:17:45;;;;;;;5.40;3.43;;;17.80;99.90;;;;;;5024564;28;20329;-75
2022/06/23 03:20:19;;;;;;;4.77;3.80;;;17.90;99.90;;;;;;5029741;28;20207;-75
2022/06/23 03:22:52;;;;;;;4.40;3.77;;;17.90;99.90;;;;;;5018717;28;20291;-75
2022/06/23 03:25:32;;;;;;;5.78;3.38;;;18.00;99.90;;;;;;5019501;28;20624;-75
2022/06/23 03:28:03;;;;;;;4.78;3.63;;;17.90;99.90;;;;;;5024653;28;20682;-75
2022/06/23 03:30:38;;;;;;;5.93;3.90;;;18.10;99.90;;;;;;5029537;28;20587;-75
2022/06/23 03:33:15;;;;;;;5.37;3.33;;;18.20;99.90;;;;;;5034969;28;20218;-76
2022/06/23 03:35:49;;;;;;;6.85;3.92;;;18.20;99.90;;;;;;5034089;28;20582;-71
2022/06/23 03:38:22;;;;;;;4.65;3.80;;;18.30;99.90;;;;;;5018051;28;20532;-72
2022/06/23 03:43:43;;;;;;;9.27;3.38;;;18.30;99.90;;;;;;5016748;28;20226;-71
2022/06/23 03:46:20;;;;;;;5.40;3.65;;;18.30;99.90;;;;;;5027425;28;20211;-70
2022/06/23 03:48:51;;;;;;;7.15;3.50;;;18.40;99.90;;;;;;5017410;28;20207;-71
2022/06/23 03:51:25;;;;;;;6.75;3.95;;;18.50;99.90;;;;;;5018012;28;20200;-71
2022/06/23 03:53:57;;;;;;;5.65;4.63;;;18.60;99.90;;;;;;5016854;28;20641;-71
2022/06/23 03:56:28;;;;;;;5.85;4.30;;;18.60;99.90;;;;;;5020634;28;20206;-71
2022/06/23 03:58:59;;;;;;;7.72;5.50;;;18.60;99.90;;;;;;5033164;28;20301;-70
2022/06/23 04:01:30;;;;;;;5.30;3.75;;;18.70;99.90;;;;;;5033584;28;20555;-71
2022/06/23 04:04:02;;;;;;;8.68;4.93;;;18.70;99.90;;;;;;5028507;28;20227;-71
2022/06/23 04:06:37;;;;;;;4.47;3.33;;;18.70;99.90;;;;;;5023807;28;20242;-71
2022/06/23 04:09:10;;;;;;;5.45;4.10;;;18.70;99.90;;;;;;5032079;28;20539;-70
2022/06/23 04:12:05;;;;;;;6.30;4.15;;;18.80;99.90;;;;;;5028868;28;20199;-71
2022/06/23 04:14:42;;;;;;;6.05;3.70;;;18.90;99.90;;;;;;5001762;28;20635;-70
2022/06/23 04:17:16;;;;;;;6.57;4.20;;;18.90;99.90;;;;;;5021294;28;20246;-69
2022/06/23 04:19:46;;;;;;;6.65;3.60;;;19.00;99.90;;;;;;5023247;28;20199;-70
2022/06/23 04:22:21;;;;;;;6.07;3.83;;;19.10;99.90;;;;;;5032744;28;20574;-69
2022/06/23 04:24:51;;;;;;;7.25;3.80;;;19.20;99.90;;;;;;5030037;28;20309;-68
2022/06/23 04:27:22;;;;;;;5.38;4.00;;;19.40;99.90;;;;;;5028104;28;20343;-72
2022/06/23 04:29:52;;;;;;;3.60;3.30;;;19.40;99.90;;;;;;5023183;28;20718;-70
2022/06/23 04:32:24;;;;;;;6.50;3.28;;;19.50;99.90;;;;;;5019768;28;20211;-69
2022/06/23 04:34:55;;;;;;;5.07;2.95;;;19.60;99.90;;;;;;5021729;28;20235;-69
2022/06/23 04:37:34;;;;;;;6.10;3.70;;;19.60;99.90;;;;;;5018664;28;20575;-69
2022/06/23 04:40:15;;;;;;;8.25;4.10;;;19.60;99.90;;;;;;5020551;28;20210;-70
2022/06/23 04:42:48;;;;;;;3.63;2.85;;;19.70;99.90;;;;;;5027571;28;20555;-69
2022/06/23 04:45:48;;;;;;;6.80;4.07;;;19.70;99.90;;;;;;5020471;28;20214;-69
2022/06/23 04:48:20;;;;;;;6.32;3.25;;;19.70;99.90;;;;;;4988189;28;20214;-70
2022/06/23 04:50:54;;;;;;;7.93;3.40;;;19.70;99.90;;;;;;5014687;28;20538;-70
2022/06/23 04:53:39;;;;;;;4.43;2.72;;;19.80;99.90;;;;;;5017096;28;20638;-70
2022/06/23 04:56:25;;;;;;;3.45;2.58;;;19.70;99.90;;;;;;5023503;28;20215;-70
2022/06/23 04:58:55;;;;;;;5.50;2.45;;;19.80;99.90;;;;;;5031273;28;20205;-70
2022/06/23 05:01:26;;;;;;;4.97;3.17;;;19.80;99.90;;;;;;5026026;28;20210;-69
2022/06/23 05:03:56;;;;;;;7.38;3.63;;;19.80;99.90;;;;;;5019249;28;20210;-70
2022/06/23 05:06:33;;;;;;;4.93;4.25;;;19.80;99.90;;;;;;5016670;28;20211;-71
2022/06/23 05:09:05;;;;;;;6.60;3.80;;;19.70;99.90;;;;;;5029685;28;20206;-71
2022/06/23 05:11:36;;;;;;;9.13;3.03;;;19.80;99.90;;;;;;5016531;28;20217;-73
2022/06/23 05:14:07;;;;;;;7.05;3.17;;;19.80;99.90;;;;;;5013951;28;20231;-71
2022/06/23 05:16:39;;;;;;;8.73;3.45;;;19.90;99.90;;;;;;5017550;28;20242;-70
2022/06/23 05:19:09;;;;;;;7.15;3.22;;;20.00;99.90;;;;;;5020261;28;20211;-70
2022/06/23 05:21:41;;;;;;;5.95;3.13;;;20.10;99.90;;;;;;5013934;28;20203;-70
2022/06/23 05:24:15;;;;;;;4.03;2.78;;;20.10;99.90;;;;;;5021986;28;20735;-69
2022/06/23 05:26:46;;;;;;;9.18;2.72;;;20.10;99.90;;;;;;5021391;28;20209;-69
2022/06/23 05:29:19;;;;;;;7.03;3.80;;;20.20;99.90;;;;;;5017681;28;20238;-69
2022/06/23 05:31:49;;;;;;;7.88;3.05;;;20.20;99.90;;;;;;5014023;28;20219;-70
2022/06/23 05:34:22;;;;;;;10.40;3.53;;;20.30;99.90;;;;;;5017957;28;20199;-69
2022/06/23 05:36:56;;;;;;;6.30;3.05;;;20.30;99.90;;;;;;5020827;28;20234;-70
2022/06/23 05:39:31;;;;;;;7.97;2.63;;;20.30;99.90;;;;;;5019327;28;20209;-69
2022/06/23 05:42:02;;;;;;;3.53;2.47;;;20.40;99.90;;;;;;5016283;28;20203;-73
2022/06/23 05:44:32;;;;;;;6.65;2.72;;;20.40;99.90;;;;;;5021140;28;20234;-75
2022/06/23 05:47:00;;;;;;;9.02;2.90;;;20.30;99.90;;;;;;5016771;28;20207;-72
2022/06/23 05:49:33;;;;;;;5.03;3.35;;;20.30;99.90;;;;;;5030293;28;20630;-73
2022/06/23 05:52:02;;;;;;;6.60;3.00;;;20.30;99.90;;;;;;5018610;28;20294;-71
2022/06/23 05:54:36;;;;;;;5.93;2.95;;;20.30;99.90;;;;;;5022952;28;20204;-75
2022/06/23 05:57:11;;;;;;;7.15;3.08;;;20.40;99.90;;;;;;5023689;28;20202;-77
2022/06/23 05:59:54;;;;;;;8.38;4.13;;;20.50;99.90;;;;;;5019827;28;20206;-72
2022/06/23 06:02:26;;;;;;;10.57;4.47;;;20.60;99.90;;;;;;5020315;28;20203;-73
2022/06/23 06:04:55;;;;;;;5.85;3.35;;;20.70;99.90;;;;;;5017558;28;20561;-72
2022/06/23 06:07:34;;;;;;;5.07;2.60;;;20.80;99.90;;;;;;5020942;28;20207;-72
2022/06/23 06:10:04;;;;;;;6.90;3.35;;;20.90;99.90;;;;;;5016733;28;20671;-73
2022/06/23 06:12:35;;;;;;;10.85;3.72;;;21.00;99.90;;;;;;5017301;28;20245;-73
2022/06/23 06:15:09;;;;;;;6.63;3.38;;;21.10;99.90;;;;;;5015868;28;20536;-72
2022/06/23 06:17:37;;;;;;;8.73;3.15;;;21.20;99.90;;;;;;5012136;28;20670;-72
2022/06/23 06:20:08;;;;;;;8.00;2.95;;;21.30;99.90;;;;;;5015351;28;20207;-72
2022/06/23 06:22:50;;;;;;;11.25;3.85;;;21.30;99.90;;;;;;5017202;28;20196;-71
2022/06/23 06:25:24;;;;;;;5.22;2.45;;;21.40;99.90;;;;;;5018243;28;20372;-70
2022/06/23 06:27:51;;;;;;;7.03;2.92;;;21.50;99.90;;;;;;5017013;28;20198;-70
2022/06/23 06:30:23;;;;;;;5.38;2.15;;;21.50;99.90;;;;;;5019483;28;20241;-74
2022/06/23 06:32:50;;;;;;;5.43;2.97;;;21.50;99.90;;;;;;5017411;28;20216;-74
2022/06/23 06:35:26;;;;;;;4.60;3.03;;;21.60;99.90;;;;;;5016170;28;20203;-72
2022/06/23 06:37:56;;;;;;;3.83;2.78;;;21.60;99.90;;;;;;5014234;28;20203;-72
2022/06/23 06:40:25;;;;;;;9.13;2.95;;;21.70;99.90;;;;;;5014648;28;20204;-70
2022/06/23 06:42:55;;;;;;;3.53;2.00;;;21.70;99.90;;;;;;5018924;28;20207;-73
2022/06/23 06:45:27;;;;;;;4.18;2.22;;;21.70;99.90;;;;;;5021244;28;20595;-69
2022/06/23 06:47:54;;;;;;;4.97;2.90;;;21.80;99.90;;;;;;5028046;28;20203;-71
2022/06/23 06:50:29;;;;;;;5.70;2.70;;;21.90;99.90;;;;;;5023115;28;20216;-74
2022/06/23 06:52:58;;;;;;;7.28;2.25;;;21.90;99.90;;;;;;5015378;28;20622;-73
2022/06/23 06:55:33;;;;;;;6.57;3.00;;;22.00;99.90;;;;;;5017712;28;20249;-72
2022/06/23 06:58:08;;;;;;;4.80;2.67;;;21.90;99.90;;;;;;5018173;28;20209;-72
2022/06/23 07:00:39;;;;;;;8.02;2.78;;;21.90;99.90;;;;;;5021211;28;20793;-72
2022/06/23 07:03:06;;;;;;;7.60;2.42;;;22.00;99.90;;;;;;5018299;28;20211;-71
2022/06/23 07:05:40;;;;;;;3.97;2.03;;;22.10;99.90;;;;;;5015066;28;20231;-68
2022/06/23 07:08:24;;;;;;;3.78;2.20;;;22.10;99.90;;;;;;5015091;28;20224;-70
2022/06/23 07:10:57;;;;;;;4.30;1.77;;;22.30;99.90;;;;;;5025180;28;20505;-71
2022/06/23 07:13:31;;;;;;;3.10;1.80;;;22.30;99.90;;;;;;5018385;28;20747;-69
2022/06/23 07:16:02;;;;;;;4.28;2.58;;;22.50;99.90;;;;;;5021174;28;20253;-70
2022/06/23 07:18:33;;;;;;;2.70;1.73;;;22.60;99.90;;;;;;5023624;28;20421;-72
2022/06/23 07:21:05;;;;;;;3.15;1.65;;;22.70;99.60;;;;;;5017405;28;20206;-71
2022/06/23 07:23:38;;;;;;;2.83;1.88;;;22.80;98.80;;;;;;5015067;28;20291;-70
2022/06/23 07:26:23;;;;;;;2.65;1.85;;;22.90;98.30;;;;;;5017349;28;20221;-71
2022/06/23 07:28:54;;;;;;;4.70;2.22;;;23.00;98.00;;;;;;5023878;28;20231;-71
2022/06/23 07:31:27;;;;;;;4.97;1.92;;;23.00;97.40;;;;;;5015723;28;20211;-70
2022/06/23 07:33:58;;;;;;;5.18;1.80;;;23.10;97.30;;;;;;5018058;28;20207;-70
2022/06/23 07:36:29;;;;;;;5.60;1.95;;;23.10;97.00;;;;;;5016771;28;20299;-70
2022/06/23 07:39:02;;;;;;;2.60;1.90;;;23.30;97.00;;;;;;5021117;28;20207;-70
2022/06/23 07:41:36;;;;;;;3.28;1.90;;;23.50;96.30;;;;;;5014343;28;20559;-71
2022/06/23 07:44:08;;;;;;;10.15;2.20;;;23.50;95.60;;;;;;5016344;28;20202;-70
2022/06/23 07:46:37;;;;;;;3.40;2.00;;;23.60;95.30;;;;;;5023417;28;20687;-72
2022/06/23 07:49:04;;;;;;;5.57;2.92;;;23.70;95.00;;;;;;5017555;28;20221;-70
2022/06/23 07:51:31;;;;;;;2.40;1.70;;;23.80;94.70;;;;;;5029128;28;20216;-70
2022/06/23 07:53:59;;;;;;;2.53;2.00;;;23.90;94.30;;;;;;5023315;28;20686;-71
2022/06/23 07:56:29;;;;;;;2.70;1.52;;;24.00;93.70;;;;;;5023383;28;20207;-72
2022/06/23 07:59:01;;;;;;;3.83;2.22;;;24.00;93.60;;;;;;5019490;28;20222;-73
2022/06/23 08:01:31;;;;;;;3.38;1.90;;;24.20;92.90;;;;;;5026001;28;20224;-73
2022/06/23 08:04:04;;;;;;;7.22;2.00;;;24.30;92.80;;;;;;5016542;28;20241;-74
2022/06/23 08:06:32;;;;;;;3.20;2.30;;;24.40;92.50;;;;;;5022854;28;20215;-73
2022/06/23 08:09:03;;;;;;;8.38;2.42;;;24.60;91.90;;;;;;5017408;28;20208;-72
2022/06/23 08:14:23;;;;;;;3.70;2.03;;;24.90;91.30;;;;;;5020358;28;20202;-72
2022/06/23 08:16:49;;;;;;;2.17;1.75;;;25.00;91.00;;;;;;5018994;28;20231;-74
2022/06/23 08:19:30;;;;;;;3.55;1.83;;;25.10;90.50;;;;;;5017879;28;20203;-74
2022/06/23 08:22:03;;;;;;;4.25;2.40;;;25.10;90.00;;;;;;5033947;28;20199;-73
2022/06/23 08:24:32;;;;;;;2.78;1.83;;;25.30;90.00;;;;;;5032489;28;20656;-73
2022/06/23 08:27:01;;;;;;;4.28;1.80;;;25.40;89.30;;;;;;5017396;28;20230;-74
2022/06/23 08:29:34;;;;;;;4.70;2.05;;;25.60;88.50;;;;;;5022745;28;20231;-72
2022/06/23 08:32:01;;;;;;;4.40;1.77;;;25.80;87.40;;;;;;5017914;28;20298;-73
2022/06/23 08:34:31;;;;;;;2.08;1.10;;;25.90;85.70;;;;;;5026598;28;20652;-73
2022/06/23 08:37:04;;;;;;;2.45;1.83;;;26.10;84.00;;;;;;5030857;28;20210;-74
2022/06/23 08:39:37;;;;;;;2.28;1.75;;;26.20;82.00;;;;;;5022061;28;20260;-73
2022/06/23 08:42:13;;;;;;;2.33;1.75;;;26.30;80.80;;;;;;5026116;28;20562;-73
2022/06/23 08:44:51;;;;;;;1.88;1.75;;;26.40;79.80;;;;;;5028925;28;20213;-73
2022/06/23 08:47:24;;;;;;;6.97;1.88;;;26.40;79.30;;;;;;5024310;28;20207;-74
2022/06/23 08:49:56;;;;;;;1.60;1.48;;;26.50;78.70;;;;;;5032625;28;20213;-72
2022/06/23 08:52:30;;;;;;;2.40;1.70;;;26.60;77.80;;;;;;5025570;28;20219;-73
2022/06/23 08:55:04;;;;;;;3.13;1.63;;;26.60;76.50;;;;;;5017992;28;20218;-73
2022/06/23 08:57:35;;;;;;;5.03;1.70;;;26.70;76.00;;;;;;5016343;28;20569;-75
2022/06/23 09:00:08;;;;;;;1.95;1.52;;;26.70;75.30;;;;;;5035065;28;20233;-75
2022/06/23 09:02:43;;;;;;;1.88;1.50;;;26.70;75.50;;;;;;5027141;28;20204;-74
2022/06/23 09:05:18;;;;;;;2.33;1.60;;;26.70;75.50;;;;;;5032724;28;20233;-74
2022/06/23 09:07:53;;;;;;;4.50;1.83;;;26.70;75.70;;;;;;5025953;28;20242;-73
2022/06/23 09:10:31;;;;;;;3.92;1.60;;;26.80;75.00;;;;;;5018763;28;20209;-73
2022/06/23 09:13:09;;;;;;;3.08;1.40;;;26.90;73.20;;;;;;5024636;28;20203;-74
2022/06/23 09:15:59;;;;;;;2.60;2.08;;;26.80;70.60;;;;;;5017564;28;20267;-74
2022/06/23 09:18:55;;;;;;;2.65;1.55;;;26.90;68.80;;;;;;5018253;28;20205;-74
2022/06/23 09:21:43;;;;;;;3.90;1.85;;;26.90;68.50;;;;;;5021275;28;20237;-73
2022/06/23 09:24:48;;;;;;;3.40;1.75;;;27.00;69.10;;;;;;5017773;28;20223;-74
2022/06/23 09:27:24;;;;;;;2.92;1.80;;;27.10;70.20;;;;;;5022274;28;20228;-73
2022/06/23 09:29:56;;;;;;;3.13;1.70;;;27.20;69.70;;;;;;5025916;28;20234;-73
2022/06/23 09:32:59;;;;;;;1.73;1.33;;;27.40;69.90;;;;;;5020306;28;20211;-73
2022/06/23 09:35:48;;;;;;;2.90;1.70;;;27.60;70.10;;;;;;5012144;28;20217;-73
2022/06/23 09:38:44;;;;;;;3.60;1.42;;;27.60;68.10;;;;;;5011732;28;20218;-73
2022/06/23 09:41:21;;;;;;;2.15;1.90;;;27.60;68.30;;;;;;5004680;28;20552;-73
2022/06/23 09:44:04;;;;;;;3.30;1.83;;;27.60;68.00;;;;;;5023633;28;20211;-73
2022/06/23 09:46:57;;;;;;;2.28;1.77;;;27.80;67.80;;;;;;5022862;28;20215;-73
2022/06/23 09:49:43;;;;;;;3.40;1.70;;;28.00;66.40;;;;;;5024996;28;20241;-73
2022/06/23 09:52:39;;;;;;;1.73;1.38;;;28.10;66.20;;;;;;5017003;28;20205;-73
2022/06/23 09:55:42;;;;;;;1.95;1.60;;;28.30;65.00;;;;;;5016393;28;20203;-73
2022/06/23 09:58:28;;;;;;;1.92;1.70;;;28.40;63.70;;;;;;4976721;28;20195;-73
2022/06/23 10:01:08;;;;;;;3.72;2.10;;;28.40;61.80;;;;;;5016287;28;20543;-73
2022/06/23 10:03:49;;;;;;;2.40;1.70;;;28.10;60.90;;;;;;5022420;28;20205;-73
2022/06/23 10:06:35;;;;;;;1.75;1.50;;;27.90;61.40;;;;;;5023903;28;20329;-74
2022/06/23 10:09:14;;;;;;;4.40;2.03;;;27.90;62.50;;;;;;5018005;28;20210;-74
2022/06/23 10:11:55;;;;;;;2.63;1.55;;;27.80;63.40;;;;;;5027268;28;20214;-74
2022/06/23 10:14:41;;;;;;;1.90;1.52;;;27.80;63.50;;;;;;5017754;28;20207;-73
2022/06/23 10:17:28;;;;;;;5.22;2.10;;;27.80;63.50;;;;;;5015485;28;20241;-73
2022/06/23 10:20:10;;;;;;;4.20;2.45;;;27.70;63.40;;;;;;5021992;28;20202;-73
2022/06/23 10:22:54;;;;;;;2.58;1.83;;;27.70;63.70;;;;;;5022207;28;20735;-72
2022/06/23 10:25:39;;;;;;;3.00;1.30;;;27.80;63.50;;;;;;5016683;28;20545;-73
2022/06/23 10:28:35;;;;;;;2.20;1.98;;;28.00;63.20;;;;;;5027304;28;20202;-74
2022/06/23 10:31:14;;;;;;;2.75;2.15;;;28.10;62.30;;;;;;5011692;28;20211;-73
2022/06/23 10:33:58;;;;;;;2.13;1.50;;;28.00;62.10;;;;;;5016847;28;20210;-73
2022/06/23 10:36:50;;;;;;;3.08;1.55;;;27.80;61.60;;;;;;5025871;28;20221;-74
2022/06/23 10:39:36;;;;;;;4.00;1.58;;;27.70;62.30;;;;;;5031442;28;20203;-73
2022/06/23 10:42:33;;;;;;;1.60;1.40;;;27.70;62.40;;;;;;5028242;28;20206;-75
2022/06/23 10:45:22;;;;;;;1.98;1.67;;;27.80;62.30;;;;;;5014344;28;20211;-73
2022/06/23 10:48:15;;;;;;;1.83;1.52;;;27.60;61.70;;;;;;5017025;28;20211;-72
2022/06/23 10:50:51;;;;;;;3.10;1.33;;;27.40;62.10;;;;;;5021196;28;20211;-74
2022/06/23 10:53:49;;;;;;;6.25;1.80;;;27.40;62.40;;;;;;5030212;28;20202;-74
2022/06/23 10:56:37;;;;;;;2.65;1.75;;;27.60;62.20;;;;;;5015929;28;20211;-72
2022/06/23 10:59:25;;;;;;;4.53;1.80;;;27.80;61.10;;;;;;5024850;28;20334;-73
2022/06/23 11:02:39;;;;;;;3.75;1.50;;;28.10;60.90;;;;;;5021672;28;20206;-73
2022/06/23 11:05:43;;;;;;;1.33;1.23;;;28.30;60.10;;;;;;4951146;29;20214;-75
2022/06/23 11:08:26;;;;;;;2.22;1.15;;;28.60;59.60;;;;;;5032056;28;20199;-75
2022/06/23 11:11:15;;;;;;;1.40;1.30;;;28.70;58.80;;;;;;5019372;28;20306;-74
2022/06/23 11:13:51;;;;;;;3.50;1.35;;;28.80;58.60;;;;;;5014100;28;20222;-73
2022/06/23 11:16:30;;;;;;;3.05;1.45;;;29.00;58.40;;;;;;5026256;28;20234;-75
2022/06/23 11:19:09;;;;;;;1.75;1.40;;;29.10;57.90;;;;;;5017498;28;20321;-72
2022/06/23 11:21:49;;;;;;;3.33;1.60;;;29.20;57.60;;;;;;5027685;28;20211;-72
2022/06/23 11:24:26;;;;;;;2.45;1.48;;;29.40;57.20;;;;;;5015661;28;20200;-75
2022/06/23 11:27:05;;;;;;;2.42;1.08;;;29.50;56.10;;;;;;5025915;28;20214;-74
2022/06/23 11:29:46;;;;;;;1.30;1.20;;;29.40;55.20;;;;;;5025756;28;20230;-75
2022/06/23 11:32:23;;;;;;;3.55;1.48;;;29.30;55.60;;;;;;5032135;28;20213;-75
2022/06/23 11:35:06;;;;;;;1.80;1.60;;;29.00;56.10;;;;;;5027276;28;20204;-74
2022/06/23 11:38:04;;;;;;;2.25;2.05;;;29.10;56.80;;;;;;5030469;28;20203;-74
2022/06/23 11:40:57;;;;;;;2.88;1.33;;;29.00;56.90;;;;;;5019461;28;20215;-74
2022/06/23 11:43:26;;;;;;;2.53;1.42;;;29.00;57.10;;;;;;5011369;28;20217;-74
2022/06/23 11:46:03;;;;;;;2.80;1.15;;;29.00;56.90;;;;;;5022169;28;20210;-72
2022/06/23 11:48:48;;;;;;;2.00;1.35;;;29.20;56.40;;;;;;5024728;28;20241;-75
2022/06/23 11:51:28;;;;;;;2.80;1.33;;;29.40;55.70;;;;;;5016844;28;20210;-73
2022/06/23 11:54:11;;;;;;;1.88;1.10;;;29.60;55.80;;;;;;5016812;28;20657;-73
2022/06/23 11:56:56;;;;;;;1.65;1.10;;;29.80;55.10;;;;;;5033349;28;20207;-73
2022/06/23 11:59:43;;;;;;;1.63;1.40;;;29.90;54.50;;;;;;5019759;28;20203;-73
2022/06/23 12:02:11;;;;;;;2.22;1.30;;;30.10;54.50;;;;;;5019316;28;20576;-73
2022/06/23 12:04:56;;;;;;;1.50;1.30;;;30.20;54.00;;;;;;5020135;28;20574;-76
2022/06/23 12:07:51;;;;;;;3.28;1.17;;;30.30;54.30;;;;;;5036608;28;20218;-74
2022/06/23 12:10:20;;;;;;;5.50;1.30;;;30.40;54.30;;;;;;5011249;28;20207;-73
2022/06/23 12:12:50;;;;;;;1.77;1.30;;;30.50;53.70;;;;;;5035887;28;20202;-72
2022/06/23 12:15:20;;;;;;;2.08;1.30;;;30.70;53.60;;;;;;5019366;28;20375;-73
2022/06/23 12:17:50;;;;;;;2.17;1.98;;;30.60;53.50;;;;;;5025885;28;20293;-72
2022/06/23 12:20:27;;;;;;;1.60;1.50;;;30.70;53.20;;;;;;5025601;28;20626;-73
2022/06/23 12:23:02;;;;;;;5.53;2.40;;;30.70;52.90;;;;;;5023301;28;20206;-74
2022/06/23 12:25:36;;;;;;;2.53;1.45;;;30.60;52.90;;;;;;5017507;28;20209;-72
2022/06/23 12:28:13;;;;;;;2.65;1.40;;;30.50;52.70;;;;;;5016912;28;20214;-74
2022/06/23 12:30:46;;;;;;;2.55;1.20;;;30.30;52.20;;;;;;5014562;28;20230;-75
2022/06/23 12:33:20;;;;;;;2.80;1.30;;;30.10;52.30;;;;;;5019339;28;20210;-73
2022/06/23 12:35:53;;;;;;;2.70;1.00;;;29.80;52.70;;;;;;5018647;28;20213;-73
2022/06/23 12:38:27;;;;;;;3.25;1.70;;;29.60;53.30;;;;;;5026796;28;20195;-73
2022/06/23 12:40:58;;;;;;;1.80;1.30;;;29.70;53.70;;;;;;5017307;28;20211;-74
2022/06/23 12:43:35;;;;;;;1.73;1.40;;;29.70;53.60;;;;;;5016748;28;20597;-72
2022/06/23 12:46:14;;;;;;;2.80;1.30;;;29.80;53.50;;;;;;5023683;28;20709;-71
2022/06/23 12:48:57;;;;;;;2.92;1.10;;;29.90;53.30;;;;;;5022082;28;20314;-72
2022/06/23 12:51:42;;;;;;;2.17;1.27;;;30.10;53.10;;;;;;5025835;28;20224;-72
2022/06/23 12:54:39;;;;;;;2.25;1.10;;;30.10;52.70;;;;;;5015699;28;20223;-72
2022/06/23 12:57:31;;;;;;;1.38;1.00;;;30.10;52.20;;;;;;5020225;28;20198;-71
2022/06/23 13:00:05;;;;;;;3.22;1.17;;;30.20;51.70;;;;;;5017188;28;20203;-72
2022/06/23 13:02:36;;;;;;;2.38;1.50;;;30.30;51.40;;;;;;5014077;28;20207;-71
2022/06/23 13:05:13;;;;;;;2.40;1.25;;;30.40;51.10;;;;;;5015949;28;20204;-71
2022/06/23 13:07:49;;;;;;;3.00;1.40;;;30.40;50.80;;;;;;5022842;28;20762;-71
2022/06/23 13:10:21;;;;;;;1.83;1.00;;;30.40;50.90;;;;;;5019686;28;20207;-72
2022/06/23 13:12:56;;;;;;;1.00;1.00;;;30.20;51.40;;;;;;5022616;28;20574;-71
2022/06/23 13:15:31;;;;;;;1.40;1.30;;;30.20;51.70;;;;;;5022509;28;20199;-74
2022/06/23 13:18:03;;;;;;;2.22;1.50;;;30.10;51.70;;;;;;5025582;28;20199;-72
2022/06/23 13:20:37;;;;;;;4.22;1.40;;;30.10;51.70;;;;;;5018961;28;20207;-73
2022/06/23 13:23:10;;;;;;;2.03;1.63;;;29.90;51.80;;;;;;5017304;28;20207;-72
2022/06/23 13:25:44;;;;;;;1.42;1.33;;;29.70;51.70;;;;;;5017880;28;20203;-74
2022/06/23 13:28:26;;;;;;;1.35;1.25;;;29.70;51.60;;;;;;5027253;28;20228;-73
2022/06/23 13:30:56;;;;;;;2.65;1.42;;;29.70;51.50;;;;;;5022195;28;20205;-73
2022/06/23 13:33:29;;;;;;;3.33;1.23;;;29.80;51.60;;;;;;5030109;28;20232;-73
2022/06/23 13:36:02;;;;;;;4.07;1.00;;;29.80;51.50;;;;;;5016834;28;20223;-73
2022/06/23 13:38:40;;;;;;;1.83;1.17;;;29.70;50.70;;;;;;5017079;28;20205;-73